Chicago Bmc, Illinois
Current Conditions -  °F | °C
As of 11:51 AM on Sunday 21 Dec 2014 (Local Time) from KORD Reporting Station
Overcast Overcast  
Wind Chill: 26°   Ceiling: 2600
Heat Index: 35°   Visibility: 7mi
Dew Point: 28°   Wind: 13mph
Humidity: 76%   Direction: 180°S
Pressure: 30.14"   Gusts: NA
Location:  42.0275°N, 87.808°W
Report Text: KORD 211751Z 18011KT 7SM OVC026 02/M02 A3014 RMK AO2 SLP213 T00171022 10017 20000 58017
Loading
Personal Weather Stations






























Interactive Weather Map New forecast layout! Learn more

10-Day Weather Forecast

Advertisements
Track Severe Weather on mobile